ZGOW

Shantou Waisha Airport

Shantou, China
TAF ZGOW 210304Z 2106/2206 12003MPS 6000 FEW020 BKN040 TX28/2106Z TN20/2122Z TEMPO 2106/2110 19005MPS
Issued Valid From Valid To
Apr-21 @ 03:04 UTC
(6 hours ago)
Apr-21 @ 06:00 UTC
(4 hours ago)
Apr-22 @ 06:00 UTC
(in 20 hours)
Apr-21 @ 06:00 to Apr-22 @ 06:00
TAF ZGOW 210304Z 2106/2206 12003MPS 6000 FEW020 BKN040 TX28/2106Z TN20/2122Z
Wind Visibility Clouds
120° at 6 knots 6,003 meters
  • Few at 2,000' AGL
  • Broken at 4,000' AGL
Temporary Apr-21 @ 06:00 to Apr-21 @ 10:00
TEMPO 2106/2110 19005MPS
Wind
190° at 10 knots
TAF ZGOW 210304Z 2106/2206 12003MPS 6000 FEW020 BKN040 TX28/2106Z TN20/2122Z TEMPO 2106/2110 19005MPS
Issued Apr-21 @ 03:04 UTC
(6 hours ago)
Valid From Apr-21 @ 06:00 UTC
(4 hours ago)
Valid To Apr-22 @ 06:00 UTC
(in 20 hours)
Apr-21 @ 06:00 - Apr-22 @ 06:00
Wind Visibility
120° at 6 knots 6,003 meters
Clouds
  • Few at 2,000' AGL
  • Broken at 4,000' AGL
Temporary Apr-21 @ 06:00 - Apr-21 @ 10:00
Wind
190° at 10 knots